Time;durP1;ratioP1;P1;durP2;ratioP2;P2;SDS_P1;SDS_P2;PMS_P1;PMS_P2;Temp;Humidity;BMP_temperature;BMP_pressure;BME280_temperature;BME280_humidity;BME280_pressure;Samples;Min_cycle;Max_cycle;Signal;HPM_P1;HPM_P2
2020/12/14 00:02:04;;;;;;;1999.90;999.90;;;;;;;2.68;85.81;98197.75;5023926;28;20620;-64
2020/12/14 00:04:30;;;;;;;1999.90;999.90;;;;;;;2.85;85.20;98193.88;5024126;28;20049;-64
2020/12/14 00:06:56;;;;;;;1999.90;999.90;;;;;;;3.04;84.16;98202.22;5023566;28;20048;-66
2020/12/14 00:09:23;;;;;;;1999.90;999.90;;;;;;;3.04;83.49;98197.59;5027293;28;20458;-65
2020/12/14 00:11:52;;;;;;;1999.90;999.90;;;;;;;2.90;83.95;98197.38;5027272;28;20443;-65
2020/12/14 00:14:19;;;;;;;1999.90;999.90;;;;;;;2.38;86.39;98207.63;5027701;28;20448;-66
2020/12/14 00:16:45;;;;;;;1999.90;999.90;;;;;;;1.98;89.21;98213.94;5026882;28;20053;-65
2020/12/14 00:19:11;;;;;;;1999.90;999.90;;;;;;;1.36;92.99;98213.88;5027180;28;20045;-65
2020/12/14 00:21:37;;;;;;;1999.90;999.90;;;;;;;1.51;93.70;98222.06;5027322;28;20097;-65
2020/12/14 00:24:03;;;;;;;1999.90;999.90;;;;;;;1.90;92.28;98218.03;5027165;28;20057;-65
2020/12/14 00:26:29;;;;;;;1999.90;999.90;;;;;;;1.96;91.00;98216.94;5026775;28;20057;-65
2020/12/14 00:28:56;;;;;;;1999.90;999.90;;;;;;;1.45;93.95;98222.34;5026840;28;20123;-65
2020/12/14 00:31:22;;;;;;;1999.90;999.90;;;;;;;2.16;93.29;98220.75;5026539;28;20049;-65
2020/12/14 00:33:48;;;;;;;1999.90;999.90;;;;;;;2.35;90.89;98223.72;5026946;28;20044;-65
2020/12/14 00:36:14;;;;;;;1999.90;999.90;;;;;;;2.24;91.38;98215.56;5026584;28;20111;-65
2020/12/14 00:38:40;;;;;;;1999.90;999.90;;;;;;;2.58;90.30;98223.16;5027008;28;20099;-66
2020/12/14 00:41:10;;;;;;;1999.90;999.90;;;;;;;2.87;89.00;98224.44;5025810;28;20500;-63
2020/12/14 00:43:36;;;;;;;1999.90;999.90;;;;;;;3.14;87.61;98230.34;5025898;28;20057;-63
2020/12/14 00:46:03;;;;;;;1999.90;999.90;;;;;;;3.31;87.21;98223.72;5025390;28;20045;-63
2020/12/14 00:48:29;;;;;;;1999.90;999.90;;;;;;;3.53;86.40;98226.88;5025930;28;20041;-63
2020/12/14 00:50:55;;;;;;;1999.90;999.90;;;;;;;3.83;85.21;98235.16;5026153;28;20114;-64
2020/12/14 00:53:21;;;;;;;1999.90;999.90;;;;;;;4.05;84.42;98237.47;5026705;28;20046;-65
2020/12/14 00:55:47;;;;;;;1999.90;999.90;;;;;;;4.25;83.71;98246.63;5026093;28;20127;-63
2020/12/14 00:58:13;;;;;;;1999.90;999.90;;;;;;;4.27;83.05;98252.59;5025951;28;20053;-64
2020/12/14 01:00:39;;;;;;;1999.90;999.90;;;;;;;4.38;83.15;98251.44;5025806;28;20057;-64
2020/12/14 01:03:06;;;;;;;1999.90;999.90;;;;;;;4.44;83.01;98257.66;5023586;28;20088;-64
2020/12/14 01:05:32;;;;;;;1999.90;999.90;;;;;;;4.49;82.35;98258.44;5006990;28;20038;-65
2020/12/14 01:07:58;;;;;;;1999.90;999.90;;;;;;;4.28;82.27;98267.94;5026037;28;20049;-65
2020/12/14 01:10:24;;;;;;;1999.90;999.90;;;;;;;4.18;82.95;98255.97;5025774;28;20824;-65
2020/12/14 01:12:50;;;;;;;1999.90;999.90;;;;;;;4.23;83.07;98258.66;5025232;28;20493;-65
2020/12/14 01:15:16;;;;;;;1999.90;999.90;;;;;;;3.36;85.38;98253.75;5023855;28;20444;-65
2020/12/14 01:17:42;;;;;;;1999.90;999.90;;;;;;;3.32;86.78;98258.13;5018702;28;20045;-64
2020/12/14 01:20:08;;;;;;;1999.90;999.90;;;;;;;3.99;84.90;98255.00;5023951;28;20460;-65
2020/12/14 01:22:34;;;;;;;1999.90;999.90;;;;;;;4.14;83.74;98254.91;5025546;28;20096;-65
2020/12/14 01:25:00;;;;;;;1999.90;999.90;;;;;;;4.18;83.10;98249.66;5025638;28;20053;-66
2020/12/14 01:27:27;;;;;;;1999.90;999.90;;;;;;;4.36;82.91;98251.72;5018154;28;20060;-65
2020/12/14 01:29:53;;;;;;;1999.90;999.90;;;;;;;4.41;82.58;98264.53;5020613;28;20111;-65
2020/12/14 01:32:19;;;;;;;1999.90;999.90;;;;;;;4.53;82.48;98259.50;5025831;28;20131;-65
2020/12/14 01:34:45;;;;;;;1999.90;999.90;;;;;;;4.61;82.47;98262.72;5024409;28;20385;-65
2020/12/14 01:37:11;;;;;;;1999.90;999.90;;;;;;;4.53;82.25;98259.50;5025820;28;20052;-65
2020/12/14 01:39:37;;;;;;;1999.90;999.90;;;;;;;4.36;83.37;98259.09;5025361;28;20231;-65
2020/12/14 01:42:03;;;;;;;1999.90;999.90;;;;;;;4.63;82.71;98255.00;5024775;28;20578;-65
2020/12/14 01:44:29;;;;;;;1999.90;999.90;;;;;;;4.72;82.16;98250.56;5025542;28;20057;-65
2020/12/14 01:46:59;;;;;;;1999.90;999.90;;;;;;;4.53;82.14;98251.28;5025036;28;20107;-64
2020/12/14 01:49:26;;;;;;;1999.90;999.90;;;;;;;4.24;83.30;98251.25;5011584;28;20649;-65
2020/12/14 01:51:52;;;;;;;1999.90;999.90;;;;;;;4.22;83.16;98251.53;5014657;28;20471;-64
2020/12/14 01:54:26;;;;;;;1999.90;999.90;;;;;;;4.57;82.51;98243.28;5025225;28;20417;-65
2020/12/14 01:56:52;;;;;;;1999.90;999.90;;;;;;;4.66;81.95;98251.69;5024888;28;20049;-64
2020/12/14 01:59:18;;;;;;;1999.90;999.90;;;;;;;4.64;81.82;98251.19;5024984;28;20135;-64
2020/12/14 02:01:45;;;;;;;1999.90;999.90;;;;;;;4.33;82.61;98259.66;5056904;28;20501;-65
2020/12/14 02:04:11;;;;;;;1999.90;999.90;;;;;;;4.08;84.03;98269.75;5025396;28;20068;-65
2020/12/14 02:06:37;;;;;;;1999.90;999.90;;;;;;;4.54;82.88;98271.25;5021954;28;20508;-65
2020/12/14 02:09:03;;;;;;;1999.90;999.90;;;;;;;4.74;81.96;98271.06;5024612;28;20049;-65
2020/12/14 02:11:29;;;;;;;1999.90;999.90;;;;;;;4.76;81.68;98270.78;5025239;28;20057;-64
2020/12/14 02:13:55;;;;;;;1999.90;999.90;;;;;;;4.52;82.24;98270.75;5024711;28;20054;-65
2020/12/14 02:16:22;;;;;;;1999.90;999.90;;;;;;;3.49;86.15;98277.72;5025355;28;20096;-64
2020/12/14 02:18:48;;;;;;;1999.90;999.90;;;;;;;4.01;84.97;98274.72;5024604;28;20696;-65
2020/12/14 02:21:17;;;;;;;1999.90;999.90;;;;;;;4.52;83.06;98268.81;5025264;28;20800;-65
2020/12/14 02:23:44;;;;;;;1999.90;999.90;;;;;;;4.53;82.89;98264.97;5024237;28;20045;-65
2020/12/14 02:26:11;;;;;;;1999.90;999.90;;;;;;;4.54;82.85;98255.66;5024517;28;20447;-65
2020/12/14 02:28:38;;;;;;;1999.90;999.90;;;;;;;4.73;82.06;98260.41;5022707;28;20087;-65
2020/12/14 02:31:04;;;;;;;1999.90;999.90;;;;;;;4.42;82.48;98257.94;5024575;28;20415;-65
2020/12/14 02:33:30;;;;;;;1999.90;999.90;;;;;;;4.76;81.88;98255.16;5024760;28;20065;-65
2020/12/14 02:35:56;;;;;;;1999.90;999.90;;;;;;;4.79;81.50;98251.00;5024016;28;20056;-65
2020/12/14 02:38:23;;;;;;;1999.90;999.90;;;;;;;4.77;81.27;98253.25;5024463;28;20086;-65
2020/12/14 02:40:49;;;;;;;1999.90;999.90;;;;;;;4.78;81.27;98249.41;5024440;28;20293;-65
2020/12/14 02:43:15;;;;;;;1999.90;999.90;;;;;;;4.84;81.29;98242.75;5024679;28;20061;-65
2020/12/14 02:45:41;;;;;;;1999.90;999.90;;;;;;;4.93;80.89;98243.75;5024571;28;20069;-64
2020/12/14 02:48:07;;;;;;;1999.90;999.90;;;;;;;4.72;81.60;98250.56;5024305;28;20049;-65
2020/12/14 02:50:35;;;;;;;1999.90;999.90;;;;;;;4.70;80.99;98244.53;5023965;28;20042;-64
2020/12/14 02:53:03;;;;;;;1999.90;999.90;;;;;;;4.37;81.60;98249.78;5024689;28;20049;-65
2020/12/14 02:55:29;;;;;;;1999.90;999.90;;;;;;;4.41;82.23;98246.19;5012484;28;20057;-64
2020/12/14 02:57:55;;;;;;;1999.90;999.90;;;;;;;4.34;81.70;98247.63;5024793;28;20061;-65
2020/12/14 03:00:21;;;;;;;1999.90;999.90;;;;;;;4.06;82.93;98250.03;5022958;28;20123;-65
2020/12/14 03:02:47;;;;;;;1999.90;999.90;;;;;;;4.04;83.09;98241.28;5024358;28;20109;-65
2020/12/14 03:05:13;;;;;;;1999.90;999.90;;;;;;;4.22;82.12;98237.84;5023719;28;20056;-65
2020/12/14 03:07:39;;;;;;;1999.90;999.90;;;;;;;4.15;82.65;98242.03;5024754;28;20049;-65
2020/12/14 03:10:06;;;;;;;1999.90;999.90;;;;;;;4.21;82.91;98246.34;5023899;28;20111;-65
2020/12/14 03:12:34;;;;;;;1999.90;999.90;;;;;;;4.31;82.00;98256.41;5024522;28;20045;-65
2020/12/14 03:15:01;;;;;;;1999.90;999.90;;;;;;;4.59;81.11;98261.06;5024228;28;20053;-66
2020/12/14 03:17:27;;;;;;;1999.90;999.90;;;;;;;4.57;81.06;98266.03;5024183;28;20053;-65
2020/12/14 03:19:53;;;;;;;1999.90;999.90;;;;;;;4.83;80.42;98268.50;5023792;28;20053;-65
2020/12/14 03:22:19;;;;;;;1999.90;999.90;;;;;;;4.74;80.71;98265.59;5024048;28;20107;-65
2020/12/14 03:24:45;;;;;;;1999.90;999.90;;;;;;;4.76;80.51;98270.78;5023974;28;20386;-66
2020/12/14 03:27:11;;;;;;;1999.90;999.90;;;;;;;4.84;80.33;98281.13;5024077;28;20054;-65
2020/12/14 03:29:38;;;;;;;1999.90;999.90;;;;;;;4.30;81.46;98282.16;5024205;28;20476;-65
2020/12/14 03:32:05;;;;;;;1999.90;999.90;;;;;;;4.44;81.66;98276.81;5021675;28;20108;-65
2020/12/14 03:34:31;;;;;;;1999.90;999.90;;;;;;;4.68;81.02;98283.19;5023543;28;20041;-65
2020/12/14 03:36:57;;;;;;;1999.90;999.90;;;;;;;4.86;80.49;98283.56;5024051;28;20326;-66
2020/12/14 03:39:23;;;;;;;1999.90;999.90;;;;;;;4.80;80.30;98280.06;5024338;28;20057;-65
2020/12/14 03:41:50;;;;;;;1999.90;999.90;;;;;;;4.68;80.94;98277.69;5023875;28;20065;-65
2020/12/14 03:44:17;;;;;;;1999.90;999.90;;;;;;;4.75;80.85;98272.72;5026903;28;20072;-65
2020/12/14 03:46:43;;;;;;;1999.90;999.90;;;;;;;4.77;80.32;98277.91;5026755;28;20045;-65
2020/12/14 03:49:09;;;;;;;1999.90;999.90;;;;;;;4.73;80.54;98279.56;5027834;28;20053;-65
2020/12/14 03:51:37;;;;;;;1999.90;999.90;;;;;;;4.86;79.87;98284.38;5027169;28;20053;-65
2020/12/14 03:54:03;;;;;;;1999.90;999.90;;;;;;;4.99;79.57;98277.41;5027695;28;20092;-65
2020/12/14 03:56:29;;;;;;;1999.90;999.90;;;;;;;4.84;79.98;98281.13;5027785;28;20111;-65
2020/12/14 03:58:55;;;;;;;1999.90;999.90;;;;;;;4.73;80.12;98279.56;5020859;28;20485;-65
2020/12/14 04:01:23;;;;;;;1999.90;999.90;;;;;;;4.82;80.19;98293.47;5021440;28;20049;-65
2020/12/14 04:03:50;;;;;;;1999.90;999.90;;;;;;;4.84;79.73;98280.28;5027014;28;20148;-65
2020/12/14 04:06:24;;;;;;;1999.90;999.90;;;;;;;4.33;81.14;98282.41;5027349;28;20053;-65
2020/12/14 04:08:52;;;;;;;1999.90;999.90;;;;;;;4.45;81.28;98279.31;5026729;28;20050;-65
2020/12/14 04:11:18;;;;;;;1999.90;999.90;;;;;;;4.48;81.34;98289.69;5027645;28;20243;-65
2020/12/14 04:13:46;;;;;;;1999.90;999.90;;;;;;;4.67;80.54;98291.69;5026924;28;20406;-65
2020/12/14 04:16:12;;;;;;;1999.90;999.90;;;;;;;4.57;80.64;98287.94;5026862;28;20053;-65
2020/12/14 04:18:39;;;;;;;1999.90;999.90;;;;;;;4.59;80.46;98296.69;5020550;28;20788;-65
2020/12/14 04:21:07;;;;;;;1999.90;999.90;;;;;;;4.66;80.54;98290.03;5020744;28;20119;-65
2020/12/14 04:23:33;;;;;;;1999.90;999.90;;;;;;;4.69;80.19;98295.78;5024070;28;20496;-65
2020/12/14 04:25:59;;;;;;;1999.90;999.90;;;;;;;4.76;80.08;98298.16;5026723;28;20111;-65
2020/12/14 04:28:25;;;;;;;1999.90;999.90;;;;;;;4.78;79.71;98297.88;5026573;28;20107;-65
2020/12/14 04:30:51;;;;;;;1999.90;999.90;;;;;;;4.82;79.73;98296.19;5026619;28;20072;-65
2020/12/14 04:33:18;;;;;;;1999.90;999.90;;;;;;;4.77;79.92;98305.28;5027025;28;20111;-65
2020/12/14 04:35:44;;;;;;;1999.90;999.90;;;;;;;4.79;79.57;98319.50;5026974;28;20053;-65
2020/12/14 04:38:11;;;;;;;1999.90;999.90;;;;;;;4.80;79.63;98318.41;5026244;28;20203;-64
2020/12/14 04:40:37;;;;;;;1999.90;999.90;;;;;;;4.86;79.72;98328.22;5026969;28;20349;-65
2020/12/14 04:43:05;;;;;;;1999.90;999.90;;;;;;;4.99;79.18;98334.94;5025544;28;20053;-65
2020/12/14 04:45:32;;;;;;;1999.90;999.90;;;;;;;5.00;79.10;98341.22;5023529;28;20041;-65
2020/12/14 04:47:59;;;;;;;1999.90;999.90;;;;;;;5.04;78.87;98345.03;5026229;28;20436;-64
2020/12/14 04:50:26;;;;;;;1999.90;999.90;;;;;;;5.02;79.17;98350.00;5026574;28;20413;-65
2020/12/14 04:52:53;;;;;;;1999.90;999.90;;;;;;;4.96;78.82;98343.75;5026242;28;20307;-65
2020/12/14 04:55:21;;;;;;;1999.90;999.90;;;;;;;5.17;78.65;98352.59;5025472;28;20100;-65
2020/12/14 04:57:49;;;;;;;1999.90;999.90;;;;;;;5.20;78.29;98354.75;5025626;28;20075;-65
2020/12/14 05:00:16;;;;;;;1999.90;999.90;;;;;;;5.06;78.75;98353.78;5026472;28;20045;-65
2020/12/14 05:02:42;;;;;;;1999.90;999.90;;;;;;;5.10;78.52;98363.88;5026083;28;20111;-65
2020/12/14 05:05:13;;;;;;;1999.90;999.90;;;;;;;5.02;78.72;98371.94;5020428;28;20554;-65
2020/12/14 05:07:40;;;;;;;1999.90;999.90;;;;;;;5.00;78.84;98374.13;5022799;28;20107;-65
2020/12/14 05:10:06;;;;;;;1999.90;999.90;;;;;;;5.14;78.63;98377.03;5021658;28;20056;-65
2020/12/14 05:12:46;;;;;;;1999.90;999.90;;;;;;;5.08;78.07;98382.53;5021364;28;20088;-65
2020/12/14 05:15:22;;;;;;;1999.90;999.90;;;;;;;4.58;79.97;98379.97;5022840;28;20103;-65
2020/12/14 05:17:50;;;;;;;1999.90;999.90;;;;;;;4.75;79.72;98371.34;5021529;28;20156;-65
2020/12/14 05:20:20;;;;;;;1999.90;999.90;;;;;;;4.54;80.32;98367.94;5022103;28;20049;-65
2020/12/14 05:23:13;;;;;;;1999.90;999.90;;;;;;;4.82;79.38;98370.97;5018644;28;20064;-65
2020/12/14 05:25:39;;;;;;;1999.90;999.90;;;;;;;4.91;79.22;98379.41;5020506;28;20159;-66
2020/12/14 05:28:16;;;;;;;1999.90;999.90;;;;;;;4.99;78.48;98380.69;5021707;28;20045;-65
2020/12/14 05:30:48;;;;;;;1999.90;999.90;;;;;;;4.84;79.35;98373.44;5021479;28;20049;-66
2020/12/14 05:33:18;;;;;;;1999.90;999.90;;;;;;;5.05;78.60;98374.91;5021390;28;20539;-65
2020/12/14 05:35:46;;;;;;;1999.90;999.90;;;;;;;5.05;78.41;98374.91;5021373;28;20053;-65
2020/12/14 05:38:17;;;;;;;1999.90;999.90;;;;;;;5.07;78.15;98374.63;5014960;28;20318;-65
2020/12/14 05:40:46;;;;;;;1999.90;999.90;;;;;;;4.76;79.27;98377.63;5016263;28;20141;-65
2020/12/14 05:43:15;;;;;;;1999.90;999.90;;;;;;;5.03;78.22;98370.81;5020469;28;20511;-65
2020/12/14 05:45:42;;;;;;;1999.90;999.90;;;;;;;5.11;77.98;98372.94;5022735;28;20489;-66
2020/12/14 05:48:29;;;;;;;1999.90;999.90;;;;;;;4.88;78.37;98372.59;5022423;28;20407;-66
2020/12/14 05:51:03;;;;;;;1999.90;999.90;;;;;;;4.73;78.92;98379.03;5007020;28;20329;-66
2020/12/14 05:53:37;;;;;;;1999.90;999.90;;;;;;;4.96;78.33;98387.59;5010180;28;20504;-64
2020/12/14 05:56:06;;;;;;;1999.90;999.90;;;;;;;4.91;78.87;98377.50;5015135;28;20071;-65
2020/12/14 05:58:33;;;;;;;1999.90;999.90;;;;;;;5.05;77.97;98382.31;5022364;28;20393;-65
2020/12/14 06:01:01;;;;;;;1999.90;999.90;;;;;;;4.88;78.60;98385.47;5021982;28;20513;-64
2020/12/14 06:03:27;;;;;;;1999.90;999.90;;;;;;;5.02;78.32;98380.97;5022483;28;20107;-64
2020/12/14 06:05:58;;;;;;;1999.90;999.90;;;;;;;4.98;78.37;98382.63;5021888;28;20049;-64
2020/12/14 06:08:27;;;;;;;1999.90;999.90;;;;;;;4.87;78.55;98390.13;5022363;28;20467;-65
2020/12/14 06:10:57;;;;;;;1999.90;999.90;;;;;;;4.94;78.25;98381.56;5020586;28;20128;-64
2020/12/14 06:13:30;;;;;;;1999.90;999.90;;;;;;;4.70;78.39;98381.50;5022543;28;20053;-66
2020/12/14 06:16:02;;;;;;;1999.90;999.90;;;;;;;4.57;79.62;98380.22;5021841;28;20048;-65
2020/12/14 06:18:33;;;;;;;1999.90;999.90;;;;;;;4.65;79.55;98392.53;5022138;28;20510;-66
2020/12/14 06:21:01;;;;;;;1999.90;999.90;;;;;;;4.80;78.94;98391.59;5021667;28;20122;-65
2020/12/14 06:23:36;;;;;;;1999.90;999.90;;;;;;;4.72;78.92;98399.31;5021966;28;20052;-65
2020/12/14 06:26:05;;;;;;;1999.90;999.90;;;;;;;4.78;78.83;98396.50;5021738;28;20049;-66
2020/12/14 06:28:34;;;;;;;1999.90;999.90;;;;;;;4.73;79.15;98400.94;5021789;28;20104;-64
2020/12/14 06:31:01;;;;;;;1999.90;999.90;;;;;;;4.86;78.58;98402.19;5020069;28;20580;-65
2020/12/14 06:33:41;;;;;;;1999.90;999.90;;;;;;;4.55;79.02;98399.69;5021932;28;20103;-65
2020/12/14 06:36:16;;;;;;;1999.90;999.90;;;;;;;4.77;78.80;98412.13;5052823;28;20084;-64
2020/12/14 06:38:43;;;;;;;1999.90;999.90;;;;;;;4.46;79.63;98406.88;5022548;28;20303;-64
2020/12/14 06:41:13;;;;;;;1999.90;999.90;;;;;;;4.58;79.39;98399.16;5021174;28;20057;-64
2020/12/14 06:43:40;;;;;;;1999.90;999.90;;;;;;;5.02;78.51;98413.03;5021777;28;20135;-64
2020/12/14 06:46:06;;;;;;;1999.90;999.90;;;;;;;5.16;77.66;98407.69;5021091;28;20052;-65
2020/12/14 06:48:42;;;;;;;1999.90;999.90;;;;;;;5.19;77.16;98413.41;5021361;28;20412;-65
2020/12/14 06:51:11;;;;;;;1999.90;999.90;;;;;;;5.06;77.84;98414.09;5021278;28;20323;-64
2020/12/14 06:53:37;;;;;;;1999.90;999.90;;;;;;;4.88;78.19;98405.47;5022043;28;20111;-65
2020/12/14 06:56:03;;;;;;;1999.90;999.90;;;;;;;4.74;78.84;98405.31;5021819;28;20052;-65
2020/12/14 06:58:32;;;;;;;1999.90;999.90;;;;;;;4.63;79.30;98403.75;5021201;28;20504;-65
2020/12/14 07:00:58;;;;;;;1999.90;999.90;;;;;;;4.44;79.86;98398.13;5021655;28;20053;-65
2020/12/14 07:03:30;;;;;;;1999.90;999.90;;;;;;;4.38;80.76;98407.50;5021155;28;20092;-65
2020/12/14 07:06:05;;;;;;;1999.90;999.90;;;;;;;4.70;79.47;98419.84;5021052;28;20542;-65
2020/12/14 07:08:39;;;;;;;1999.90;999.90;;;;;;;4.66;79.03;98424.25;5021712;28;20053;-65
2020/12/14 07:11:19;;;;;;;1999.90;999.90;;;;;;;4.68;79.19;98422.88;5012298;28;20164;-65
2020/12/14 07:13:46;;;;;;;1999.90;999.90;;;;;;;4.45;80.05;98426.31;5021272;28;20060;-65
2020/12/14 07:16:14;;;;;;;1999.90;999.90;;;;;;;4.59;79.77;98438.28;5022004;28;20046;-65
2020/12/14 07:18:42;;;;;;;1999.90;999.90;;;;;;;4.74;79.15;98432.69;5023325;28;20480;-65
2020/12/14 07:21:13;;;;;;;1999.90;999.90;;;;;;;4.36;80.61;98437.06;5025551;28;20049;-65
2020/12/14 07:23:42;;;;;;;1999.90;999.90;;;;;;;4.33;80.57;98441.19;5025660;28;20049;-65
2020/12/14 07:26:12;;;;;;;1999.90;999.90;;;;;;;4.19;81.78;98440.97;5025520;28;20493;-65
2020/12/14 07:28:42;;;;;;;1999.90;999.90;;;;;;;4.41;80.29;98434.31;5025875;28;20061;-65
2020/12/14 07:31:17;;;;;;;1999.90;999.90;;;;;;;4.70;79.75;98425.34;5024613;28;20130;-65
2020/12/14 07:33:57;;;;;;;1999.90;999.90;;;;;;;4.76;79.08;98426.94;5024965;28;20433;-65
2020/12/14 07:36:26;;;;;;;1999.90;999.90;;;;;;;4.87;79.41;98428.50;5025210;28;20053;-64
2020/12/14 07:38:57;;;;;;;1999.90;999.90;;;;;;;5.01;78.85;98427.84;5025247;28;20568;-64
2020/12/14 07:41:25;;;;;;;1999.90;999.90;;;;;;;5.34;77.45;98439.06;5025234;28;20049;-64
2020/12/14 07:43:55;;;;;;;1999.90;999.90;;;;;;;5.62;76.76;98437.41;5023720;28;20061;-65
2020/12/14 07:46:22;;;;;;;1999.90;999.90;;;;;;;5.69;76.43;98442.56;5024695;28;20041;-65
2020/12/14 07:49:00;;;;;;;1999.90;999.90;;;;;;;5.50;76.42;98446.03;5024610;28;20069;-64
2020/12/14 07:51:27;;;;;;;1999.90;999.90;;;;;;;5.56;76.40;98439.38;5024971;28;20080;-65
2020/12/14 07:54:03;;;;;;;1999.90;999.90;;;;;;;5.27;76.98;98453.13;5008104;28;20125;-64
2020/12/14 07:56:29;;;;;;;1999.90;999.90;;;;;;;5.40;76.76;98459.84;5010349;28;20049;-64
2020/12/14 07:58:55;;;;;;;1999.90;999.90;;;;;;;4.59;79.28;98454.72;5042722;28;20562;-64
2020/12/14 08:01:22;;;;;;;1999.90;999.90;;;;;;;5.18;77.88;98447.44;5024500;28;20068;-64
2020/12/14 08:03:49;;;;;;;1999.90;999.90;;;;;;;4.90;78.21;98438.88;5024667;28;20057;-64
2020/12/14 08:06:17;;;;;;;1999.90;999.90;;;;;;;5.32;77.48;98444.03;5024971;28;20504;-64
2020/12/14 08:08:48;;;;;;;1999.90;999.90;;;;;;;5.38;77.10;98443.66;5024948;28;20099;-64
2020/12/14 08:11:18;;;;;;;1999.90;999.90;;;;;;;5.68;76.10;98440.91;5024767;28;20099;-65
2020/12/14 08:13:50;;;;;;;1999.90;999.90;;;;;;;5.59;76.40;98435.25;5024931;28;20300;-64
2020/12/14 08:16:20;;;;;;;1999.90;999.90;;;;;;;5.85;75.42;98446.75;5024409;28;20041;-65
2020/12/14 08:18:51;;;;;;;1999.90;999.90;;;;;;;6.15;74.93;98445.59;5024518;28;20571;-64
2020/12/14 08:21:21;;;;;;;1999.90;999.90;;;;;;;6.04;74.94;98446.00;5024019;28;20049;-66
2020/12/14 08:23:48;;;;;;;1999.90;999.90;;;;;;;5.89;74.58;98456.03;5024280;28;20045;-64
2020/12/14 08:26:28;;;;;;;1999.90;999.90;;;;;;;5.79;75.46;98456.97;5024152;28;20049;-66
2020/12/14 08:28:59;;;;;;;1999.90;999.90;;;;;;;5.79;75.39;98453.38;5024990;28;20049;-65
2020/12/14 08:31:25;;;;;;;1999.90;999.90;;;;;;;5.76;76.00;98451.22;5024408;28;20135;-64
2020/12/14 08:33:56;;;;;;;1999.90;999.90;;;;;;;5.84;75.56;98450.59;5023811;28;20170;-66
2020/12/14 08:36:24;;;;;;;1999.90;999.90;;;;;;;5.93;74.83;98465.31;5024389;28;20743;-64
2020/12/14 08:38:51;;;;;;;1999.90;999.90;;;;;;;6.09;74.41;98465.16;5024130;28;20823;-65
2020/12/14 08:41:23;;;;;;;1999.90;999.90;;;;;;;6.28;73.68;98466.03;5023929;28;20049;-65
2020/12/14 08:43:53;;;;;;;1999.90;999.90;;;;;;;5.87;74.30;98471.97;5023866;28;20468;-66
2020/12/14 08:46:21;;;;;;;1999.90;999.90;;;;;;;6.28;73.66;98471.53;5024844;28;20049;-65
2020/12/14 08:48:52;;;;;;;1999.90;999.90;;;;;;;6.48;72.78;98475.09;5024387;28;20144;-66
2020/12/14 08:51:20;;;;;;;1999.90;999.90;;;;;;;6.12;72.81;98478.31;5023900;28;20493;-65
2020/12/14 08:53:50;;;;;;;1999.90;999.90;;;;;;;6.28;72.47;98470.69;5023930;28;20057;-66
2020/12/14 08:56:18;;;;;;;1999.90;999.90;;;;;;;6.14;72.34;98478.84;5055687;28;20053;-64
2020/12/14 08:58:51;;;;;;;1999.90;999.90;;;;;;;6.34;71.77;98469.50;5024238;28;20053;-64
2020/12/14 09:01:31;;;;;;;1999.90;999.90;;;;;;;5.92;72.63;98468.34;5024453;28;20057;-64
2020/12/14 09:04:00;;;;;;;1999.90;999.90;;;;;;;6.38;71.98;98459.56;5016719;28;20088;-66
2020/12/14 09:06:37;;;;;;;1999.90;999.90;;;;;;;6.39;71.84;98460.41;5023554;28;20072;-65
2020/12/14 09:09:10;;;;;;;1999.90;999.90;;;;;;;6.31;72.25;98454.44;5025020;28;20160;-65
2020/12/14 09:11:49;;;;;;;1999.90;999.90;;;;;;;6.24;72.95;98451.25;5023334;28;20065;-65
2020/12/14 09:14:24;;;;;;;1999.90;999.90;;;;;;;6.04;74.00;98452.31;5024159;28;20084;-65
2020/12/14 09:16:55;;;;;;;1999.90;999.90;;;;;;;6.42;72.17;98454.31;5023424;28;20624;-65
2020/12/14 09:19:32;;;;;;;1999.90;999.90;;;;;;;6.24;72.50;98454.00;5023681;28;20049;-65
2020/12/14 09:21:59;;;;;;;1999.90;999.90;;;;;;;6.47;71.62;98459.72;5022942;28;20472;-65
2020/12/14 09:24:27;;;;;;;1999.90;999.90;;;;;;;6.12;72.38;98450.88;5023895;28;20076;-65
2020/12/14 09:27:01;;;;;;;1999.90;999.90;;;;;;;6.07;71.95;98454.47;5023001;28;20053;-65
2020/12/14 09:29:28;;;;;;;1999.90;999.90;;;;;;;6.43;71.27;98462.25;5024193;28;20056;-65
2020/12/14 09:31:55;;;;;;;1999.90;999.90;;;;;;;6.74;69.91;98445.31;5023026;28;20266;-65
2020/12/14 09:34:23;;;;;;;1999.90;999.90;;;;;;;5.98;71.44;98446.09;5023623;28;20580;-65
2020/12/14 09:36:54;;;;;;;1999.90;999.90;;;;;;;5.91;70.96;98445.59;5022877;28;20057;-65
2020/12/14 09:39:22;;;;;;;1999.90;999.90;;;;;;;6.34;70.17;98453.03;5023026;28;20269;-65
2020/12/14 09:41:49;;;;;;;1999.90;999.90;;;;;;;6.62;69.31;98440.25;5021810;28;20057;-65
2020/12/14 09:44:16;;;;;;;1999.90;999.90;;;;;;;6.61;68.96;98446.06;5023601;28;20057;-65
2020/12/14 09:46:42;;;;;;;1999.90;999.90;;;;;;;6.64;68.86;98440.81;5023215;28;20586;-65
2020/12/14 09:49:08;;;;;;;1999.90;999.90;;;;;;;6.07;70.22;98448.97;5023217;28;20500;-64
2020/12/14 09:51:35;;;;;;;1999.90;999.90;;;;;;;6.48;69.35;98447.63;5023049;28;20053;-65
2020/12/14 09:54:02;;;;;;;1999.90;999.90;;;;;;;6.07;69.67;98438.00;5023430;28;20211;-65
2020/12/14 09:56:29;;;;;;;1999.90;999.90;;;;;;;6.14;69.93;98432.16;5022423;28;20049;-65
2020/12/14 09:58:55;;;;;;;1999.90;999.90;;;;;;;6.37;69.58;98438.69;5022828;28;20053;-65
2020/12/14 10:01:21;;;;;;;1999.90;999.90;;;;;;;6.77;68.14;98435.66;5023371;28;20053;-65
2020/12/14 10:03:48;;;;;;;1999.90;999.90;;;;;;;6.48;68.74;98436.66;5022846;28;20057;-65
2020/12/14 10:06:15;;;;;;;1999.90;999.90;;;;;;;6.33;69.68;98430.25;5023145;28;20064;-65
2020/12/14 10:08:41;;;;;;;1999.90;999.90;;;;;;;6.92;68.36;98421.66;5022357;28;20059;-64
2020/12/14 10:11:08;;;;;;;1999.90;999.90;;;;;;;7.03;68.04;98425.91;5023089;28;20330;-64
2020/12/14 10:13:35;;;;;;;1999.90;999.90;;;;;;;6.98;67.93;98426.00;5022630;28;20053;-64
2020/12/14 10:16:03;;;;;;;1999.90;999.90;;;;;;;7.27;67.65;98435.94;5022413;28;20049;-64
2020/12/14 10:18:29;;;;;;;1999.90;999.90;;;;;;;7.25;67.84;98427.19;5022515;28;20135;-64
2020/12/14 10:20:56;;;;;;;1999.90;999.90;;;;;;;7.56;66.32;98427.44;5022421;28;20049;-64
2020/12/14 10:23:22;;;;;;;1999.90;999.90;;;;;;;7.40;66.75;98418.66;5022782;28;20045;-64
2020/12/14 10:25:48;;;;;;;1999.90;999.90;;;;;;;7.42;66.50;98428.56;5022525;28;20059;-64
2020/12/14 10:28:15;;;;;;;1999.90;999.90;;;;;;;7.55;65.68;98422.25;5022968;28;20049;-64
2020/12/14 10:30:42;;;;;;;1999.90;999.90;;;;;;;7.43;66.33;98431.00;5022627;28;20054;-64
2020/12/14 10:33:17;;;;;;;1999.90;999.90;;;;;;;7.90;64.77;98425.41;5022902;28;20041;-64
2020/12/14 10:35:48;;;;;;;1999.90;999.90;;;;;;;7.93;65.19;98424.81;5022287;28;20528;-64
2020/12/14 10:38:15;;;;;;;1999.90;999.90;;;;;;;7.91;64.99;98414.09;5022699;28;20049;-63
2020/12/14 10:40:42;;;;;;;1999.90;999.90;;;;;;;7.79;65.00;98411.03;5021418;28;20052;-65
2020/12/14 10:43:08;;;;;;;1999.90;999.90;;;;;;;7.97;64.45;98414.00;5022273;28;20053;-64
2020/12/14 10:45:35;;;;;;;1999.90;999.90;;;;;;;7.96;64.95;98418.69;5022008;28;20375;-64
2020/12/14 10:48:02;;;;;;;1999.90;999.90;;;;;;;8.13;63.86;98411.72;5022031;28;20397;-64
2020/12/14 10:50:28;;;;;;;1999.90;999.90;;;;;;;7.64;64.19;98411.34;5021310;28;20497;-64
2020/12/14 10:52:54;;;;;;;1999.90;999.90;;;;;;;6.77;66.69;98408.97;5021482;28;20115;-64
2020/12/14 10:55:20;;;;;;;1999.90;999.90;;;;;;;7.26;65.80;98409.56;5022261;28;20130;-64
2020/12/14 10:57:46;;;;;;;1999.90;999.90;;;;;;;7.40;65.43;98406.84;5022288;28;20115;-64
2020/12/14 11:00:13;;;;;;;1999.90;999.90;;;;;;;7.10;65.63;98414.53;5022080;28;20073;-64
2020/12/14 11:02:40;;;;;;;1999.90;999.90;;;;;;;6.88;66.61;98415.97;5021792;28;20251;-64
2020/12/14 11:05:08;;;;;;;1999.90;999.90;;;;;;;6.45;68.39;98426.25;5021688;28;20049;-64
2020/12/14 11:07:34;;;;;;;1999.90;999.90;;;;;;;7.26;66.33;98423.31;5022081;28;20118;-64